createdAt,value
2023-04-19T00:00:54.660Z,100914.44
2023-04-19T00:06:00.726Z,100916.75
2023-04-19T00:11:02.454Z,100905.59
2023-04-19T00:16:04.363Z,100898.25
2023-04-19T00:21:06.428Z,100900.31
2023-04-19T00:26:08.078Z,100898.84
2023-04-19T00:31:09.645Z,100898.22
2023-04-19T00:36:12.480Z,100904.53
2023-04-19T00:41:14.066Z,100905.59
2023-04-19T00:46:16.039Z,100891.50
2023-04-19T00:51:17.988Z,100895.06
2023-04-19T00:56:22.210Z,100879.09
2023-04-19T01:01:23.780Z,100874.03
2023-04-19T01:06:28.182Z,100881.41
2023-04-19T01:11:29.862Z,100879.09
2023-04-19T01:16:33.365Z,100875.28
2023-04-19T01:21:39.323Z,100863.91
2023-04-19T01:26:40.877Z,100867.09
2023-04-19T01:31:43.398Z,100869.59
2023-04-19T01:36:45.001Z,100859.69
2023-04-19T01:41:47.293Z,100861.78
2023-04-19T01:46:48.950Z,100854.88
2023-04-19T01:51:50.697Z,100856.09
2023-04-19T01:56:52.322Z,100858.63
2023-04-19T02:01:54.582Z,100850.84
2023-04-19T02:06:56.182Z,100852.09
2023-04-19T02:11:57.886Z,100846.84
2023-04-19T02:17:01.666Z,100846.41
2023-04-19T02:22:03.235Z,100849.75
2023-04-19T02:27:04.788Z,100833.13
2023-04-19T02:32:07.813Z,100835.66
2023-04-19T02:37:09.445Z,100832.94
2023-04-19T02:42:11.108Z,100831.66
2023-04-19T02:47:12.633Z,100829.97
2023-04-19T02:52:14.463Z,100831.88
2023-04-19T02:57:16.589Z,100818.41
2023-04-19T03:02:18.973Z,100818.41
2023-04-19T03:07:21.121Z,100825.97
2023-04-19T03:12:22.765Z,100814.97
2023-04-19T03:17:24.532Z,100828.63
2023-04-19T03:22:27.428Z,100822.94
2023-04-19T03:27:29.098Z,100828.41
2023-04-19T03:32:35.354Z,100821.47
2023-04-19T03:37:37.966Z,100831.09
2023-04-19T03:42:39.943Z,100815.97
2023-04-19T03:47:46.740Z,100810.00
2023-04-19T03:52:48.409Z,100796.75
2023-04-19T03:57:50.314Z,100805.47
2023-04-19T04:02:58.968Z,100790.31
2023-04-19T04:08:01.082Z,100802.56
2023-04-19T04:13:02.834Z,100801.31
2023-04-19T04:18:28.589Z,100802.81
2023-04-19T04:23:30.762Z,100792.47
2023-04-19T04:28:33.672Z,100798.38
2023-04-19T04:33:36.029Z,100798.16
2023-04-19T04:38:39.281Z,100799.63
2023-04-19T04:43:41.439Z,100803.75
2023-04-19T04:48:43.979Z,100808.34
2023-04-19T04:53:46.009Z,100809.00
2023-04-19T04:58:47.913Z,100811.34
2023-04-19T05:03:57.347Z,100806.31
2023-04-19T05:08:59.278Z,100809.25
2023-04-19T05:14:07.247Z,100805.16
2023-04-19T05:19:09.554Z,100807.94
2023-04-19T05:24:17.471Z,100810.25
2023-04-19T05:29:19.347Z,100805.19
2023-04-19T05:34:25.076Z,100808.38
2023-04-19T05:39:29.230Z,100818.03
2023-04-19T05:44:33.034Z,100827.72
2023-04-19T05:49:34.828Z,100803.97
2023-04-19T05:54:52.032Z,100809.00
2023-04-19T05:59:53.995Z,100817.81
2023-04-19T06:05:02.502Z,100824.59
2023-04-19T06:10:07.885Z,100812.59
2023-04-19T06:15:09.880Z,100812.34
2023-04-19T06:20:12.304Z,100820.97
2023-04-19T06:25:13.879Z,100806.34
2023-04-19T06:30:15.520Z,100819.88
2023-04-19T06:35:17.392Z,100816.25
2023-04-19T06:40:19.149Z,100815.75
2023-04-19T06:45:20.700Z,100809.16
2023-04-19T06:50:22.777Z,100792.75
2023-04-19T06:55:24.437Z,100796.19
2023-04-19T07:00:26.403Z,100803.28
2023-04-19T07:05:28.994Z,100803.81
2023-04-19T07:10:30.607Z,100795.38
2023-04-19T07:15:32.421Z,100785.38
2023-04-19T07:20:34.289Z,100783.66
2023-04-19T07:25:35.877Z,100775.44
2023-04-19T07:30:37.560Z,100785.88
2023-04-19T07:35:40.173Z,100791.34
2023-04-19T07:40:41.728Z,100795.84
2023-04-19T07:45:43.354Z,100776.00
2023-04-19T07:50:44.952Z,100750.53
2023-04-19T07:55:46.495Z,100754.88
2023-04-19T08:00:48.096Z,100730.44
2023-04-19T08:05:49.864Z,100722.06
2023-04-19T08:10:54.716Z,100703.13
2023-04-19T08:21:01.437Z,100707.91
2023-04-19T08:26:03.542Z,100662.44
2023-04-19T08:31:08.575Z,100692.38
2023-04-19T08:36:10.442Z,100692.59
2023-04-19T08:41:13.692Z,100703.38
2023-04-19T08:46:15.377Z,100686.38
2023-04-19T08:51:19.014Z,100675.97
2023-04-19T08:56:34.532Z,100667.97
2023-04-19T09:01:37.245Z,100688.19
2023-04-19T09:06:40.026Z,100674.06
2023-04-19T09:11:42.128Z,100655.97
2023-04-19T09:16:44.739Z,100657.41
2023-04-19T09:21:51.921Z,100661.72
2023-04-19T09:26:57.928Z,100658.97
2023-04-19T09:31:59.955Z,100658.88
2023-04-19T09:37:22.795Z,100641.06
2023-04-19T09:48:07.470Z,100656.56
2023-04-19T09:53:10.878Z,100635.06
2023-04-19T09:58:12.517Z,100642.13
2023-04-19T10:03:18.378Z,100654.81
2023-04-19T10:08:20.009Z,100647.50
2023-04-19T10:13:26.712Z,100636.47
2023-04-19T10:18:29.633Z,100617.00
2023-04-19T10:23:37.475Z,100634.16
2023-04-19T10:28:39.161Z,100579.97
2023-04-19T10:33:41.419Z,100572.88
2023-04-19T10:38:48.378Z,100559.25
2023-04-19T10:43:56.135Z,100567.41
2023-04-19T10:48:59.761Z,100575.09
2023-04-19T10:54:03.480Z,100563.38
2023-04-19T10:59:08.139Z,100573.69
2023-04-19T11:04:15.694Z,100557.78
2023-04-19T11:09:24.540Z,100559.69
2023-04-19T11:14:27.235Z,100569.78
2023-04-19T11:19:28.926Z,100560.91
2023-04-19T11:24:30.543Z,100582.19
2023-04-19T11:29:32.145Z,100573.53
2023-04-19T11:34:39.042Z,100565.06
2023-04-19T11:39:49.098Z,100563.19
2023-04-19T11:44:52.096Z,100575.94
2023-04-19T11:49:56.240Z,100557.44
2023-04-19T11:55:18.243Z,100568.19
2023-04-19T12:00:28.492Z,100557.94
2023-04-19T12:05:30.577Z,100566.91
2023-04-19T12:10:32.820Z,100575.25
2023-04-19T12:15:44.967Z,100569.88
2023-04-19T12:20:50.921Z,100577.50
2023-04-19T12:25:52.596Z,100579.84
2023-04-19T12:30:54.177Z,100601.75
2023-04-19T12:35:55.733Z,100622.78
2023-04-19T12:40:57.319Z,100616.19
2023-04-19T12:45:59.553Z,100621.63
2023-04-19T12:51:01.195Z,100620.09
2023-04-19T12:56:02.822Z,100615.44
2023-04-19T13:01:05.001Z,100615.69
2023-04-19T13:06:07.241Z,100616.78
2023-04-19T13:11:08.789Z,100613.03
2023-04-19T13:16:11.079Z,100599.94
2023-04-19T13:21:13.199Z,100597.25
2023-04-19T13:26:15.815Z,100592.44
2023-04-19T13:31:17.430Z,100598.88
2023-04-19T13:36:19.236Z,100593.88
2023-04-19T13:41:21.342Z,100584.22
2023-04-19T13:46:23.214Z,100578.53
2023-04-19T13:51:24.965Z,100570.00
2023-04-19T13:56:26.785Z,100566.16
2023-04-19T14:01:28.485Z,100558.50
2023-04-19T14:06:30.093Z,100544.31
2023-04-19T14:11:31.650Z,100551.84
2023-04-19T14:16:33.066Z,100533.28
2023-04-19T14:21:38.577Z,100528.38
2023-04-19T14:26:40.160Z,100530.13
2023-04-19T14:31:41.686Z,100514.22
2023-04-19T14:36:43.220Z,100501.25
2023-04-19T14:41:47.106Z,100486.53
2023-04-19T14:46:48.612Z,100470.34
2023-04-19T14:51:52.018Z,100469.25
2023-04-19T14:56:53.772Z,100464.69
2023-04-19T15:01:55.376Z,100455.78
2023-04-19T15:06:56.906Z,100447.13
2023-04-19T15:11:58.426Z,100436.88
2023-04-19T15:17:00.035Z,100435.31
2023-04-19T15:22:03.909Z,100427.34
2023-04-19T15:27:05.575Z,100420.03
2023-04-19T15:32:07.400Z,100417.19
2023-04-19T15:37:11.357Z,100417.66
2023-04-19T15:42:13.009Z,100413.50
2023-04-19T15:47:14.621Z,100409.09
2023-04-19T15:52:16.208Z,100397.34
2023-04-19T15:57:18.250Z,100390.06
2023-04-19T16:02:19.945Z,100382.91
2023-04-19T16:07:21.761Z,100373.13
2023-04-19T16:12:23.919Z,100386.91
2023-04-19T16:17:25.515Z,100385.50
2023-04-19T16:22:27.112Z,100389.44
2023-04-19T16:27:28.669Z,100410.59
2023-04-19T16:32:30.332Z,100415.00
2023-04-19T16:37:32.791Z,100363.28
2023-04-19T16:42:35.497Z,100435.59
2023-04-19T16:47:37.090Z,100452.41
2023-04-19T16:52:38.724Z,100447.50
2023-04-19T16:57:40.387Z,100439.94
2023-04-19T17:02:42.034Z,100426.31
2023-04-19T17:07:43.709Z,100383.34
2023-04-19T17:12:45.238Z,100378.19
2023-04-19T17:17:46.853Z,100353.97
2023-04-19T17:22:48.391Z,100341.97
2023-04-19T17:27:50.820Z,100306.91
2023-04-19T17:32:52.620Z,100242.84
2023-04-19T17:37:54.265Z,100252.66
2023-04-19T17:42:55.883Z,100288.50
2023-04-19T17:47:57.446Z,100313.31
2023-04-19T17:52:59.008Z,100325.09
2023-04-19T17:58:00.750Z,100348.88
2023-04-19T18:03:02.343Z,100354.78
2023-04-19T18:08:04.481Z,100357.91
2023-04-19T18:13:06.094Z,100368.47
2023-04-19T18:18:07.757Z,100378.44
2023-04-19T18:23:09.414Z,100379.53
2023-04-19T18:28:10.945Z,100391.94
2023-04-19T18:33:12.619Z,100372.44
2023-04-19T18:38:14.247Z,100311.72
2023-04-19T18:43:16.307Z,100280.25
2023-04-19T18:48:17.856Z,100237.97
2023-04-19T18:53:19.434Z,100209.59
2023-04-19T18:58:21.022Z,100211.06
2023-04-19T19:03:43.848Z,100193.38
2023-04-19T19:08:45.281Z,100188.91
2023-04-19T19:13:47.246Z,100209.56
2023-04-19T19:18:48.816Z,100333.44
2023-04-19T19:23:52.559Z,100355.16
2023-04-19T19:28:54.324Z,100362.56
2023-04-19T19:34:14.745Z,100369.06
2023-04-19T19:39:17.813Z,100367.81
2023-04-19T19:44:19.616Z,100374.78
2023-04-19T19:49:21.865Z,100390.09
2023-04-19T19:54:23.713Z,100395.09
2023-04-19T19:59:30.125Z,100399.69
2023-04-19T20:04:35.192Z,100405.78
2023-04-19T20:09:37.059Z,100405.13
2023-04-19T20:14:38.822Z,100418.09
2023-04-19T20:19:42.474Z,100424.09
2023-04-19T20:24:45.715Z,100428.84
2023-04-19T20:29:47.313Z,100426.22
2023-04-19T20:34:48.852Z,100422.38
2023-04-19T20:39:50.485Z,100433.72
2023-04-19T20:44:52.170Z,100440.31
2023-04-19T20:49:53.710Z,100442.47
2023-04-19T20:54:56.842Z,100453.75
2023-04-19T20:59:58.886Z,100455.53
2023-04-19T21:05:00.591Z,100449.19
2023-04-19T21:10:02.174Z,100450.44
2023-04-19T21:15:04.926Z,100456.81
2023-04-19T21:20:12.263Z,100465.34
2023-04-19T21:25:14.069Z,100461.25
2023-04-19T21:30:16.644Z,100466.34
2023-04-19T21:35:18.636Z,100463.81
2023-04-19T21:40:20.238Z,100474.69
2023-04-19T21:45:21.781Z,100479.66
2023-04-19T21:50:23.344Z,100481.47
2023-04-19T21:55:25.140Z,100481.84
2023-04-19T22:00:26.678Z,100486.53
2023-04-19T22:05:28.248Z,100477.44
2023-04-19T22:10:30.081Z,100465.13
2023-04-19T22:15:31.773Z,100463.53
2023-04-19T22:20:33.811Z,100456.72
2023-04-19T22:25:35.564Z,100465.75
2023-04-19T22:30:37.116Z,100456.47
2023-04-19T22:35:38.648Z,100454.75
2023-04-19T22:40:40.365Z,100452.22
2023-04-19T22:45:44.550Z,100451.25
2023-04-19T22:50:46.902Z,100447.06
2023-04-19T22:55:48.579Z,100443.94
2023-04-19T23:00:50.226Z,100431.00
2023-04-19T23:05:54.226Z,100432.53
2023-04-19T23:10:55.929Z,100410.06
2023-04-19T23:15:58.434Z,100411.81
2023-04-19T23:21:00.019Z,100412.66
2023-04-19T23:26:01.635Z,100405.09
2023-04-19T23:31:03.281Z,100398.31
2023-04-19T23:36:05.132Z,100401.75
2023-04-19T23:41:09.374Z,100400.59
2023-04-19T23:46:10.974Z,100383.88
2023-04-19T23:51:12.822Z,100387.28
2023-04-19T23:56:14.397Z,100387.81
